sensor_id;sensor_type;location;lat;lon;timestamp;P1;durP1;ratioP1;P2;durP2;ratioP2
12687;SDS011;6408;59.388;17.798;2023-12-28T00:02:01;1.90;;;1.10;;
12687;SDS011;6408;59.388;17.798;2023-12-28T00:04:28;4.47;;;1.43;;
12687;SDS011;6408;59.388;17.798;2023-12-28T00:06:55;2.10;;;1.03;;
12687;SDS011;6408;59.388;17.798;2023-12-28T00:09:24;3.20;;;1.23;;
12687;SDS011;6408;59.388;17.798;2023-12-28T00:11:51;2.33;;;1.23;;
12687;SDS011;6408;59.388;17.798;2023-12-28T00:14:18;2.73;;;1.07;;
12687;SDS011;6408;59.388;17.798;2023-12-28T00:16:45;3.40;;;0.90;;
12687;SDS011;6408;59.388;17.798;2023-12-28T00:19:12;3.67;;;1.10;;
12687;SDS011;6408;59.388;17.798;2023-12-28T00:21:39;2.47;;;0.90;;
12687;SDS011;6408;59.388;17.798;2023-12-28T00:24:06;2.13;;;0.97;;
12687;SDS011;6408;59.388;17.798;2023-12-28T00:26:34;2.27;;;1.00;;
12687;SDS011;6408;59.388;17.798;2023-12-28T00:29:01;2.07;;;0.87;;
12687;SDS011;6408;59.388;17.798;2023-12-28T00:31:28;1.67;;;0.90;;
12687;SDS011;6408;59.388;17.798;2023-12-28T00:33:56;1.87;;;0.90;;
12687;SDS011;6408;59.388;17.798;2023-12-28T00:36:23;3.43;;;1.00;;
12687;SDS011;6408;59.388;17.798;2023-12-28T00:38:49;2.10;;;1.00;;
12687;SDS011;6408;59.388;17.798;2023-12-28T00:41:16;4.80;;;1.17;;
12687;SDS011;6408;59.388;17.798;2023-12-28T00:43:45;2.37;;;1.10;;
12687;SDS011;6408;59.388;17.798;2023-12-28T00:46:12;3.30;;;1.13;;
12687;SDS011;6408;59.388;17.798;2023-12-28T00:48:39;2.50;;;1.17;;
12687;SDS011;6408;59.388;17.798;2023-12-28T00:51:06;4.57;;;1.00;;
12687;SDS011;6408;59.388;17.798;2023-12-28T00:53:34;1.80;;;1.13;;
12687;SDS011;6408;59.388;17.798;2023-12-28T00:56:00;1.47;;;0.90;;
12687;SDS011;6408;59.388;17.798;2023-12-28T00:58:27;1.47;;;0.80;;
12687;SDS011;6408;59.388;17.798;2023-12-28T01:00:56;2.80;;;1.27;;
12687;SDS011;6408;59.388;17.798;2023-12-28T01:03:23;3.53;;;1.20;;
12687;SDS011;6408;59.388;17.798;2023-12-28T01:05:50;1.43;;;1.00;;
12687;SDS011;6408;59.388;17.798;2023-12-28T01:08:18;3.57;;;1.13;;
12687;SDS011;6408;59.388;17.798;2023-12-28T01:10:45;3.27;;;1.00;;
12687;SDS011;6408;59.388;17.798;2023-12-28T01:13:12;3.37;;;1.47;;
12687;SDS011;6408;59.388;17.798;2023-12-28T01:15:39;4.63;;;1.40;;
12687;SDS011;6408;59.388;17.798;2023-12-28T01:18:07;3.17;;;1.20;;
12687;SDS011;6408;59.388;17.798;2023-12-28T01:20:34;5.03;;;1.30;;
12687;SDS011;6408;59.388;17.798;2023-12-28T01:23:02;1.47;;;1.07;;
12687;SDS011;6408;59.388;17.798;2023-12-28T01:25:30;2.53;;;1.23;;
12687;SDS011;6408;59.388;17.798;2023-12-28T01:27:57;2.23;;;1.30;;
12687;SDS011;6408;59.388;17.798;2023-12-28T01:30:24;3.80;;;1.00;;
12687;SDS011;6408;59.388;17.798;2023-12-28T01:32:51;1.47;;;1.20;;
12687;SDS011;6408;59.388;17.798;2023-12-28T01:35:20;1.07;;;0.70;;
12687;SDS011;6408;59.388;17.798;2023-12-28T01:37:47;4.67;;;1.00;;
12687;SDS011;6408;59.388;17.798;2023-12-28T01:40:15;2.10;;;1.33;;
12687;SDS011;6408;59.388;17.798;2023-12-28T01:42:42;2.20;;;1.10;;
12687;SDS011;6408;59.388;17.798;2023-12-28T01:45:09;4.07;;;1.20;;
12687;SDS011;6408;59.388;17.798;2023-12-28T01:47:36;3.07;;;0.93;;
12687;SDS011;6408;59.388;17.798;2023-12-28T01:50:04;2.67;;;1.00;;
12687;SDS011;6408;59.388;17.798;2023-12-28T01:52:34;3.23;;;1.40;;
12687;SDS011;6408;59.388;17.798;2023-12-28T01:55:01;1.50;;;1.10;;
12687;SDS011;6408;59.388;17.798;2023-12-28T01:57:29;6.70;;;1.20;;
12687;SDS011;6408;59.388;17.798;2023-12-28T01:59:57;1.67;;;1.00;;
12687;SDS011;6408;59.388;17.798;2023-12-28T02:02:26;1.80;;;0.90;;
12687;SDS011;6408;59.388;17.798;2023-12-28T02:04:54;2.33;;;1.03;;
12687;SDS011;6408;59.388;17.798;2023-12-28T02:07:21;1.87;;;1.27;;
12687;SDS011;6408;59.388;17.798;2023-12-28T02:09:49;1.17;;;0.90;;
12687;SDS011;6408;59.388;17.798;2023-12-28T02:12:16;2.93;;;1.20;;
12687;SDS011;6408;59.388;17.798;2023-12-28T02:14:43;1.73;;;1.10;;
12687;SDS011;6408;59.388;17.798;2023-12-28T02:17:12;2.63;;;1.00;;
12687;SDS011;6408;59.388;17.798;2023-12-28T02:19:47;2.00;;;1.07;;
12687;SDS011;6408;59.388;17.798;2023-12-28T02:22:16;2.30;;;1.03;;
12687;SDS011;6408;59.388;17.798;2023-12-28T02:27:38;2.57;;;0.83;;
12687;SDS011;6408;59.388;17.798;2023-12-28T02:30:07;5.23;;;1.00;;
12687;SDS011;6408;59.388;17.798;2023-12-28T02:32:38;4.43;;;0.97;;
12687;SDS011;6408;59.388;17.798;2023-12-28T02:35:11;4.00;;;0.90;;
12687;SDS011;6408;59.388;17.798;2023-12-28T02:37:43;3.17;;;1.40;;
12687;SDS011;6408;59.388;17.798;2023-12-28T02:40:15;4.97;;;1.30;;
12687;SDS011;6408;59.388;17.798;2023-12-28T02:42:43;1.17;;;0.90;;
12687;SDS011;6408;59.388;17.798;2023-12-28T02:45:10;3.27;;;1.20;;
12687;SDS011;6408;59.388;17.798;2023-12-28T02:47:37;4.40;;;1.33;;
12687;SDS011;6408;59.388;17.798;2023-12-28T02:50:04;2.90;;;1.10;;
12687;SDS011;6408;59.388;17.798;2023-12-28T02:52:32;3.73;;;1.40;;
12687;SDS011;6408;59.388;17.798;2023-12-28T02:54:59;1.93;;;1.50;;
12687;SDS011;6408;59.388;17.798;2023-12-28T02:57:28;4.83;;;1.30;;
12687;SDS011;6408;59.388;17.798;2023-12-28T02:59:55;5.60;;;1.33;;
12687;SDS011;6408;59.388;17.798;2023-12-28T03:02:26;1.70;;;0.90;;
12687;SDS011;6408;59.388;17.798;2023-12-28T03:04:54;2.63;;;0.93;;
12687;SDS011;6408;59.388;17.798;2023-12-28T03:07:21;3.93;;;1.10;;
12687;SDS011;6408;59.388;17.798;2023-12-28T03:09:48;2.37;;;1.10;;
12687;SDS011;6408;59.388;17.798;2023-12-28T03:12:15;2.93;;;1.23;;
12687;SDS011;6408;59.388;17.798;2023-12-28T03:14:44;4.83;;;1.33;;
12687;SDS011;6408;59.388;17.798;2023-12-28T03:17:11;1.60;;;1.10;;
12687;SDS011;6408;59.388;17.798;2023-12-28T03:19:38;1.93;;;1.13;;
12687;SDS011;6408;59.388;17.798;2023-12-28T03:22:05;2.47;;;0.87;;
12687;SDS011;6408;59.388;17.798;2023-12-28T03:24:33;3.90;;;1.00;;
12687;SDS011;6408;59.388;17.798;2023-12-28T03:27:00;2.10;;;1.20;;
12687;SDS011;6408;59.388;17.798;2023-12-28T03:29:27;2.63;;;1.03;;
12687;SDS011;6408;59.388;17.798;2023-12-28T03:31:56;2.73;;;1.13;;
12687;SDS011;6408;59.388;17.798;2023-12-28T03:34:24;4.37;;;1.10;;
12687;SDS011;6408;59.388;17.798;2023-12-28T03:36:51;3.43;;;1.20;;
12687;SDS011;6408;59.388;17.798;2023-12-28T03:39:18;3.63;;;1.37;;
12687;SDS011;6408;59.388;17.798;2023-12-28T03:41:46;2.13;;;1.20;;
12687;SDS011;6408;59.388;17.798;2023-12-28T03:44:13;1.93;;;1.13;;
12687;SDS011;6408;59.388;17.798;2023-12-28T03:46:41;2.87;;;1.10;;
12687;SDS011;6408;59.388;17.798;2023-12-28T03:49:10;3.10;;;1.37;;
12687;SDS011;6408;59.388;17.798;2023-12-28T03:51:37;1.40;;;1.10;;
12687;SDS011;6408;59.388;17.798;2023-12-28T03:54:04;2.80;;;1.30;;
12687;SDS011;6408;59.388;17.798;2023-12-28T03:56:31;6.80;;;1.40;;
12687;SDS011;6408;59.388;17.798;2023-12-28T03:59:00;2.83;;;1.40;;
12687;SDS011;6408;59.388;17.798;2023-12-28T04:01:27;1.30;;;1.07;;
12687;SDS011;6408;59.388;17.798;2023-12-28T04:03:55;2.13;;;1.10;;
12687;SDS011;6408;59.388;17.798;2023-12-28T04:06:23;2.53;;;1.53;;
12687;SDS011;6408;59.388;17.798;2023-12-28T04:08:50;2.93;;;1.07;;
12687;SDS011;6408;59.388;17.798;2023-12-28T04:11:17;5.13;;;1.40;;
12687;SDS011;6408;59.388;17.798;2023-12-28T04:13:44;2.03;;;1.10;;
12687;SDS011;6408;59.388;17.798;2023-12-28T04:16:12;2.30;;;1.43;;
12687;SDS011;6408;59.388;17.798;2023-12-28T04:18:39;4.23;;;1.43;;
12687;SDS011;6408;59.388;17.798;2023-12-28T04:21:07;2.60;;;1.40;;
12687;SDS011;6408;59.388;17.798;2023-12-28T04:23:37;3.50;;;1.47;;
12687;SDS011;6408;59.388;17.798;2023-12-28T04:26:04;3.53;;;1.40;;
12687;SDS011;6408;59.388;17.798;2023-12-28T04:28:31;4.30;;;1.37;;
12687;SDS011;6408;59.388;17.798;2023-12-28T04:31:01;1.20;;;0.87;;
12687;SDS011;6408;59.388;17.798;2023-12-28T04:33:29;2.27;;;1.10;;
12687;SDS011;6408;59.388;17.798;2023-12-28T04:35:56;2.47;;;1.37;;
12687;SDS011;6408;59.388;17.798;2023-12-28T04:38:24;3.00;;;1.53;;
12687;SDS011;6408;59.388;17.798;2023-12-28T04:40:52;2.40;;;1.37;;
12687;SDS011;6408;59.388;17.798;2023-12-28T04:43:19;1.70;;;0.93;;
12687;SDS011;6408;59.388;17.798;2023-12-28T04:45:48;5.20;;;1.20;;
12687;SDS011;6408;59.388;17.798;2023-12-28T04:48:15;3.67;;;1.30;;
12687;SDS011;6408;59.388;17.798;2023-12-28T04:50:46;3.07;;;1.63;;
12687;SDS011;6408;59.388;17.798;2023-12-28T04:53:13;4.23;;;1.37;;
12687;SDS011;6408;59.388;17.798;2023-12-28T04:55:40;2.77;;;1.20;;
12687;SDS011;6408;59.388;17.798;2023-12-28T04:58:09;2.77;;;1.17;;
12687;SDS011;6408;59.388;17.798;2023-12-28T05:00:37;2.13;;;1.10;;
12687;SDS011;6408;59.388;17.798;2023-12-28T05:03:04;2.13;;;1.37;;
12687;SDS011;6408;59.388;17.798;2023-12-28T05:05:31;5.47;;;1.50;;
12687;SDS011;6408;59.388;17.798;2023-12-28T05:07:58;5.50;;;1.40;;
12687;SDS011;6408;59.388;17.798;2023-12-28T05:10:25;3.07;;;1.50;;
12687;SDS011;6408;59.388;17.798;2023-12-28T05:12:52;5.27;;;1.40;;
12687;SDS011;6408;59.388;17.798;2023-12-28T05:15:21;3.20;;;1.27;;
12687;SDS011;6408;59.388;17.798;2023-12-28T05:17:48;3.07;;;1.10;;
12687;SDS011;6408;59.388;17.798;2023-12-28T05:20:15;2.90;;;1.30;;
12687;SDS011;6408;59.388;17.798;2023-12-28T05:22:43;1.90;;;1.30;;
12687;SDS011;6408;59.388;17.798;2023-12-28T05:25:10;4.47;;;1.40;;
12687;SDS011;6408;59.388;17.798;2023-12-28T05:27:37;2.77;;;1.10;;
12687;SDS011;6408;59.388;17.798;2023-12-28T05:30:05;3.63;;;1.17;;
12687;SDS011;6408;59.388;17.798;2023-12-28T05:32:34;1.43;;;1.10;;
12687;SDS011;6408;59.388;17.798;2023-12-28T05:35:02;3.23;;;1.43;;
12687;SDS011;6408;59.388;17.798;2023-12-28T05:37:29;4.17;;;1.60;;
12687;SDS011;6408;59.388;17.798;2023-12-28T05:39:56;3.40;;;0.97;;
12687;SDS011;6408;59.388;17.798;2023-12-28T05:42:23;2.17;;;1.30;;
12687;SDS011;6408;59.388;17.798;2023-12-28T05:44:50;2.97;;;1.10;;
12687;SDS011;6408;59.388;17.798;2023-12-28T05:47:17;4.70;;;1.20;;
12687;SDS011;6408;59.388;17.798;2023-12-28T05:49:46;5.53;;;1.33;;
12687;SDS011;6408;59.388;17.798;2023-12-28T05:52:13;3.50;;;1.27;;
12687;SDS011;6408;59.388;17.798;2023-12-28T05:54:43;2.27;;;1.07;;
12687;SDS011;6408;59.388;17.798;2023-12-28T05:57:10;4.43;;;1.57;;
12687;SDS011;6408;59.388;17.798;2023-12-28T05:59:37;6.83;;;1.50;;
12687;SDS011;6408;59.388;17.798;2023-12-28T06:02:06;1.90;;;1.00;;
12687;SDS011;6408;59.388;17.798;2023-12-28T06:04:33;2.63;;;1.17;;
12687;SDS011;6408;59.388;17.798;2023-12-28T06:07:03;2.63;;;1.30;;
12687;SDS011;6408;59.388;17.798;2023-12-28T06:09:31;5.80;;;1.30;;
12687;SDS011;6408;59.388;17.798;2023-12-28T06:11:58;2.03;;;1.20;;
12687;SDS011;6408;59.388;17.798;2023-12-28T06:14:25;3.30;;;1.37;;
12687;SDS011;6408;59.388;17.798;2023-12-28T06:16:52;2.23;;;1.57;;
12687;SDS011;6408;59.388;17.798;2023-12-28T06:19:19;4.93;;;1.33;;
12687;SDS011;6408;59.388;17.798;2023-12-28T06:21:47;5.13;;;1.53;;
12687;SDS011;6408;59.388;17.798;2023-12-28T06:24:15;5.30;;;1.10;;
12687;SDS011;6408;59.388;17.798;2023-12-28T06:26:43;2.20;;;1.10;;
12687;SDS011;6408;59.388;17.798;2023-12-28T06:29:11;3.60;;;0.87;;
12687;SDS011;6408;59.388;17.798;2023-12-28T06:31:38;3.30;;;1.50;;
12687;SDS011;6408;59.388;17.798;2023-12-28T06:34:05;1.43;;;0.70;;
12687;SDS011;6408;59.388;17.798;2023-12-28T06:36:33;4.23;;;1.20;;
12687;SDS011;6408;59.388;17.798;2023-12-28T06:39:00;4.13;;;0.90;;
12687;SDS011;6408;59.388;17.798;2023-12-28T06:41:29;2.00;;;1.30;;
12687;SDS011;6408;59.388;17.798;2023-12-28T06:43:56;3.37;;;1.00;;
12687;SDS011;6408;59.388;17.798;2023-12-28T06:46:23;3.47;;;1.27;;
12687;SDS011;6408;59.388;17.798;2023-12-28T06:48:50;1.50;;;0.90;;
12687;SDS011;6408;59.388;17.798;2023-12-28T06:51:17;1.13;;;0.90;;
12687;SDS011;6408;59.388;17.798;2023-12-28T06:53:45;4.13;;;1.03;;
12687;SDS011;6408;59.388;17.798;2023-12-28T06:56:12;4.20;;;1.20;;
12687;SDS011;6408;59.388;17.798;2023-12-28T06:58:41;1.67;;;0.90;;
12687;SDS011;6408;59.388;17.798;2023-12-28T07:01:08;2.53;;;1.43;;
12687;SDS011;6408;59.388;17.798;2023-12-28T07:03:36;3.17;;;1.17;;
12687;SDS011;6408;59.388;17.798;2023-12-28T07:06:03;4.73;;;1.50;;
12687;SDS011;6408;59.388;17.798;2023-12-28T07:08:30;1.60;;;1.27;;
12687;SDS011;6408;59.388;17.798;2023-12-28T07:10:57;2.27;;;1.00;;
12687;SDS011;6408;59.388;17.798;2023-12-28T07:13:24;2.50;;;1.20;;
12687;SDS011;6408;59.388;17.798;2023-12-28T07:15:53;4.57;;;1.20;;
12687;SDS011;6408;59.388;17.798;2023-12-28T07:18:20;3.67;;;1.13;;
12687;SDS011;6408;59.388;17.798;2023-12-28T07:20:47;3.93;;;1.03;;
12687;SDS011;6408;59.388;17.798;2023-12-28T07:23:14;3.63;;;1.23;;
12687;SDS011;6408;59.388;17.798;2023-12-28T07:25:42;2.57;;;1.47;;
12687;SDS011;6408;59.388;17.798;2023-12-28T07:28:09;5.80;;;1.63;;
12687;SDS011;6408;59.388;17.798;2023-12-28T07:30:36;1.80;;;1.00;;
12687;SDS011;6408;59.388;17.798;2023-12-28T07:33:06;1.97;;;0.97;;
12687;SDS011;6408;59.388;17.798;2023-12-28T07:35:33;3.50;;;0.87;;
12687;SDS011;6408;59.388;17.798;2023-12-28T07:38:00;2.57;;;1.27;;
12687;SDS011;6408;59.388;17.798;2023-12-28T07:40:27;6.00;;;1.53;;
12687;SDS011;6408;59.388;17.798;2023-12-28T07:42:54;3.10;;;0.80;;
12687;SDS011;6408;59.388;17.798;2023-12-28T07:45:21;3.60;;;1.27;;
12687;SDS011;6408;59.388;17.798;2023-12-28T07:47:49;1.87;;;0.80;;
12687;SDS011;6408;59.388;17.798;2023-12-28T07:50:18;5.23;;;1.47;;
12687;SDS011;6408;59.388;17.798;2023-12-28T07:52:46;4.70;;;1.80;;
12687;SDS011;6408;59.388;17.798;2023-12-28T07:55:13;3.53;;;1.33;;
12687;SDS011;6408;59.388;17.798;2023-12-28T07:57:40;3.37;;;1.20;;
12687;SDS011;6408;59.388;17.798;2023-12-28T08:00:08;3.43;;;1.20;;
12687;SDS011;6408;59.388;17.798;2023-12-28T08:02:35;2.77;;;0.83;;
12687;SDS011;6408;59.388;17.798;2023-12-28T08:05:03;1.73;;;1.07;;
12687;SDS011;6408;59.388;17.798;2023-12-28T08:07:31;1.03;;;0.80;;
12687;SDS011;6408;59.388;17.798;2023-12-28T08:09:59;3.77;;;0.93;;
12687;SDS011;6408;59.388;17.798;2023-12-28T08:12:26;1.20;;;1.00;;
12687;SDS011;6408;59.388;17.798;2023-12-28T08:14:54;4.53;;;0.70;;
12687;SDS011;6408;59.388;17.798;2023-12-28T08:17:21;5.03;;;1.20;;
12687;SDS011;6408;59.388;17.798;2023-12-28T08:19:48;2.60;;;1.50;;
12687;SDS011;6408;59.388;17.798;2023-12-28T08:22:15;2.50;;;1.13;;
12687;SDS011;6408;59.388;17.798;2023-12-28T08:24:49;3.90;;;0.90;;
12687;SDS011;6408;59.388;17.798;2023-12-28T08:27:16;2.60;;;0.93;;
12687;SDS011;6408;59.388;17.798;2023-12-28T08:29:43;4.17;;;1.03;;
12687;SDS011;6408;59.388;17.798;2023-12-28T08:32:11;6.20;;;1.27;;
12687;SDS011;6408;59.388;17.798;2023-12-28T08:34:38;1.47;;;0.73;;
12687;SDS011;6408;59.388;17.798;2023-12-28T08:37:05;4.40;;;1.43;;
12687;SDS011;6408;59.388;17.798;2023-12-28T08:39:32;1.87;;;0.60;;
12687;SDS011;6408;59.388;17.798;2023-12-28T08:42:01;1.23;;;1.13;;
12687;SDS011;6408;59.388;17.798;2023-12-28T08:44:28;2.73;;;1.10;;
12687;SDS011;6408;59.388;17.798;2023-12-28T08:46:55;1.80;;;1.00;;
12687;SDS011;6408;59.388;17.798;2023-12-28T08:49:21;3.53;;;0.90;;
12687;SDS011;6408;59.388;17.798;2023-12-28T08:51:48;1.10;;;1.00;;
12687;SDS011;6408;59.388;17.798;2023-12-28T08:54:15;2.47;;;1.10;;
12687;SDS011;6408;59.388;17.798;2023-12-28T08:56:42;3.83;;;1.10;;
12687;SDS011;6408;59.388;17.798;2023-12-28T08:59:11;2.77;;;1.03;;
12687;SDS011;6408;59.388;17.798;2023-12-28T09:01:38;4.27;;;1.30;;
12687;SDS011;6408;59.388;17.798;2023-12-28T09:04:06;1.33;;;0.80;;
12687;SDS011;6408;59.388;17.798;2023-12-28T09:06:33;3.00;;;0.90;;
12687;SDS011;6408;59.388;17.798;2023-12-28T09:09:00;2.93;;;1.33;;
12687;SDS011;6408;59.388;17.798;2023-12-28T09:11:28;1.23;;;0.60;;
12687;SDS011;6408;59.388;17.798;2023-12-28T09:13:55;2.90;;;1.10;;
12687;SDS011;6408;59.388;17.798;2023-12-28T09:16:24;1.30;;;0.90;;
12687;SDS011;6408;59.388;17.798;2023-12-28T09:18:53;1.10;;;0.90;;
12687;SDS011;6408;59.388;17.798;2023-12-28T09:21:20;2.43;;;1.03;;
12687;SDS011;6408;59.388;17.798;2023-12-28T09:23:47;0.70;;;0.70;;
12687;SDS011;6408;59.388;17.798;2023-12-28T09:26:14;1.83;;;1.00;;
12687;SDS011;6408;59.388;17.798;2023-12-28T09:28:41;3.20;;;1.00;;
12687;SDS011;6408;59.388;17.798;2023-12-28T09:31:10;3.67;;;1.00;;
12687;SDS011;6408;59.388;17.798;2023-12-28T09:33:38;0.50;;;0.50;;
12687;SDS011;6408;59.388;17.798;2023-12-28T09:36:06;2.87;;;0.77;;
12687;SDS011;6408;59.388;17.798;2023-12-28T09:38:33;2.30;;;0.70;;
12687;SDS011;6408;59.388;17.798;2023-12-28T09:41:10;2.40;;;0.80;;
12687;SDS011;6408;59.388;17.798;2023-12-28T09:43:46;3.70;;;1.00;;
12687;SDS011;6408;59.388;17.798;2023-12-28T09:46:19;1.37;;;1.00;;
12687;SDS011;6408;59.388;17.798;2023-12-28T09:48:48;1.30;;;0.93;;
12687;SDS011;6408;59.388;17.798;2023-12-28T09:51:15;2.30;;;0.90;;
12687;SDS011;6408;59.388;17.798;2023-12-28T09:53:43;2.93;;;0.90;;
12687;SDS011;6408;59.388;17.798;2023-12-28T09:56:10;2.20;;;0.90;;
12687;SDS011;6408;59.388;17.798;2023-12-28T09:58:39;0.93;;;0.80;;
12687;SDS011;6408;59.388;17.798;2023-12-28T10:01:06;1.10;;;0.87;;
12687;SDS011;6408;59.388;17.798;2023-12-28T10:03:35;1.40;;;1.00;;
12687;SDS011;6408;59.388;17.798;2023-12-28T10:06:04;1.07;;;0.67;;
12687;SDS011;6408;59.388;17.798;2023-12-28T10:08:31;0.80;;;0.77;;
12687;SDS011;6408;59.388;17.798;2023-12-28T10:10:58;1.10;;;0.80;;
12687;SDS011;6408;59.388;17.798;2023-12-28T10:13:26;0.90;;;0.60;;
12687;SDS011;6408;59.388;17.798;2023-12-28T10:15:56;0.67;;;0.67;;
12687;SDS011;6408;59.388;17.798;2023-12-28T10:18:23;3.10;;;1.17;;
12687;SDS011;6408;59.388;17.798;2023-12-28T10:20:50;1.23;;;0.80;;
12687;SDS011;6408;59.388;17.798;2023-12-28T10:23:20;0.57;;;0.57;;
12687;SDS011;6408;59.388;17.798;2023-12-28T10:25:48;2.07;;;1.00;;
12687;SDS011;6408;59.388;17.798;2023-12-28T10:28:19;1.10;;;0.90;;
12687;SDS011;6408;59.388;17.798;2023-12-28T10:30:46;1.20;;;1.03;;
12687;SDS011;6408;59.388;17.798;2023-12-28T10:33:13;1.00;;;0.90;;
12687;SDS011;6408;59.388;17.798;2023-12-28T10:35:41;0.73;;;0.73;;
12687;SDS011;6408;59.388;17.798;2023-12-28T10:38:08;0.90;;;0.83;;
12687;SDS011;6408;59.388;17.798;2023-12-28T10:40:41;2.00;;;1.20;;
12687;SDS011;6408;59.388;17.798;2023-12-28T10:43:11;1.67;;;1.07;;
12687;SDS011;6408;59.388;17.798;2023-12-28T10:45:40;0.70;;;0.60;;
12687;SDS011;6408;59.388;17.798;2023-12-28T10:48:09;1.23;;;0.93;;
12687;SDS011;6408;59.388;17.798;2023-12-28T10:50:39;1.10;;;0.93;;
12687;SDS011;6408;59.388;17.798;2023-12-28T10:53:10;0.70;;;0.70;;
12687;SDS011;6408;59.388;17.798;2023-12-28T10:55:58;0.70;;;0.70;;
12687;SDS011;6408;59.388;17.798;2023-12-28T10:58:34;1.80;;;0.93;;
12687;SDS011;6408;59.388;17.798;2023-12-28T11:01:08;1.20;;;1.03;;
12687;SDS011;6408;59.388;17.798;2023-12-28T11:03:37;0.67;;;0.67;;
12687;SDS011;6408;59.388;17.798;2023-12-28T11:06:07;1.03;;;0.83;;
12687;SDS011;6408;59.388;17.798;2023-12-28T11:08:35;1.10;;;0.90;;
12687;SDS011;6408;59.388;17.798;2023-12-28T11:11:04;0.90;;;0.80;;
12687;SDS011;6408;59.388;17.798;2023-12-28T11:13:34;1.63;;;1.00;;
12687;SDS011;6408;59.388;17.798;2023-12-28T11:16:02;0.80;;;0.80;;
12687;SDS011;6408;59.388;17.798;2023-12-28T11:18:29;1.03;;;0.90;;
12687;SDS011;6408;59.388;17.798;2023-12-28T11:20:56;2.90;;;0.90;;
12687;SDS011;6408;59.388;17.798;2023-12-28T11:23:24;1.03;;;0.93;;
12687;SDS011;6408;59.388;17.798;2023-12-28T11:25:51;0.80;;;0.80;;
12687;SDS011;6408;59.388;17.798;2023-12-28T11:28:20;1.10;;;0.80;;
12687;SDS011;6408;59.388;17.798;2023-12-28T11:30:50;0.60;;;0.60;;
12687;SDS011;6408;59.388;17.798;2023-12-28T11:33:17;0.40;;;0.40;;
12687;SDS011;6408;59.388;17.798;2023-12-28T11:35:44;0.63;;;0.50;;
12687;SDS011;6408;59.388;17.798;2023-12-28T11:38:14;2.00;;;0.90;;
12687;SDS011;6408;59.388;17.798;2023-12-28T11:40:44;0.97;;;0.67;;
12687;SDS011;6408;59.388;17.798;2023-12-28T11:43:17;2.03;;;0.90;;
12687;SDS011;6408;59.388;17.798;2023-12-28T11:45:46;1.23;;;0.80;;
12687;SDS011;6408;59.388;17.798;2023-12-28T11:48:22;1.47;;;0.53;;
12687;SDS011;6408;59.388;17.798;2023-12-28T11:50:50;1.70;;;1.07;;
12687;SDS011;6408;59.388;17.798;2023-12-28T11:53:20;0.77;;;0.70;;
12687;SDS011;6408;59.388;17.798;2023-12-28T11:55:47;0.80;;;0.60;;
12687;SDS011;6408;59.388;17.798;2023-12-28T11:58:15;1.50;;;0.93;;
12687;SDS011;6408;59.388;17.798;2023-12-28T12:00:43;1.77;;;0.80;;
12687;SDS011;6408;59.388;17.798;2023-12-28T12:03:11;0.60;;;0.60;;
12687;SDS011;6408;59.388;17.798;2023-12-28T12:05:38;0.73;;;0.60;;
12687;SDS011;6408;59.388;17.798;2023-12-28T12:08:06;3.17;;;1.97;;
12687;SDS011;6408;59.388;17.798;2023-12-28T12:10:36;1.43;;;0.93;;
12687;SDS011;6408;59.388;17.798;2023-12-28T12:13:03;2.77;;;1.20;;
12687;SDS011;6408;59.388;17.798;2023-12-28T12:15:30;1.47;;;1.00;;
12687;SDS011;6408;59.388;17.798;2023-12-28T12:17:59;1.57;;;1.13;;
12687;SDS011;6408;59.388;17.798;2023-12-28T12:20:27;5.63;;;1.93;;
12687;SDS011;6408;59.388;17.798;2023-12-28T12:22:57;13.90;;;6.87;;
12687;SDS011;6408;59.388;17.798;2023-12-28T12:25:24;2.30;;;1.40;;
12687;SDS011;6408;59.388;17.798;2023-12-28T12:27:51;1.47;;;1.13;;
12687;SDS011;6408;59.388;17.798;2023-12-28T12:30:19;1.10;;;1.00;;
12687;SDS011;6408;59.388;17.798;2023-12-28T12:32:46;3.37;;;1.20;;
12687;SDS011;6408;59.388;17.798;2023-12-28T12:35:16;1.97;;;1.10;;
12687;SDS011;6408;59.388;17.798;2023-12-28T12:37:46;2.43;;;1.03;;
12687;SDS011;6408;59.388;17.798;2023-12-28T12:40:15;2.47;;;1.60;;
12687;SDS011;6408;59.388;17.798;2023-12-28T12:42:51;2.33;;;1.67;;
12687;SDS011;6408;59.388;17.798;2023-12-28T12:45:19;2.63;;;1.90;;
12687;SDS011;6408;59.388;17.798;2023-12-28T12:47:47;4.00;;;2.07;;
12687;SDS011;6408;59.388;17.798;2023-12-28T12:50:17;2.63;;;1.37;;
12687;SDS011;6408;59.388;17.798;2023-12-28T12:52:44;5.37;;;2.00;;
12687;SDS011;6408;59.388;17.798;2023-12-28T12:55:11;3.07;;;1.70;;
12687;SDS011;6408;59.388;17.798;2023-12-28T12:57:41;5.50;;;2.33;;
12687;SDS011;6408;59.388;17.798;2023-12-28T13:00:09;3.20;;;2.00;;
12687;SDS011;6408;59.388;17.798;2023-12-28T13:02:37;2.00;;;1.30;;
12687;SDS011;6408;59.388;17.798;2023-12-28T13:05:05;3.90;;;2.50;;
12687;SDS011;6408;59.388;17.798;2023-12-28T13:07:35;3.40;;;2.40;;
12687;SDS011;6408;59.388;17.798;2023-12-28T13:10:02;5.87;;;2.50;;
12687;SDS011;6408;59.388;17.798;2023-12-28T13:12:31;6.17;;;3.50;;
12687;SDS011;6408;59.388;17.798;2023-12-28T13:15:01;4.70;;;3.47;;
12687;SDS011;6408;59.388;17.798;2023-12-28T13:17:28;9.90;;;3.97;;
12687;SDS011;6408;59.388;17.798;2023-12-28T13:19:56;9.77;;;3.00;;
12687;SDS011;6408;59.388;17.798;2023-12-28T13:22:23;6.83;;;3.00;;
12687;SDS011;6408;59.388;17.798;2023-12-28T13:24:53;7.90;;;3.87;;
12687;SDS011;6408;59.388;17.798;2023-12-28T13:27:21;7.90;;;3.63;;
12687;SDS011;6408;59.388;17.798;2023-12-28T13:29:49;8.30;;;3.63;;
12687;SDS011;6408;59.388;17.798;2023-12-28T13:32:16;11.53;;;4.43;;
12687;SDS011;6408;59.388;17.798;2023-12-28T13:34:44;11.30;;;3.83;;
12687;SDS011;6408;59.388;17.798;2023-12-28T13:37:11;9.83;;;4.10;;
12687;SDS011;6408;59.388;17.798;2023-12-28T13:39:39;7.93;;;3.77;;
12687;SDS011;6408;59.388;17.798;2023-12-28T13:42:08;8.97;;;4.10;;
12687;SDS011;6408;59.388;17.798;2023-12-28T13:44:35;15.37;;;4.47;;
12687;SDS011;6408;59.388;17.798;2023-12-28T13:47:03;7.07;;;4.50;;
12687;SDS011;6408;59.388;17.798;2023-12-28T13:49:32;9.63;;;4.33;;
12687;SDS011;6408;59.388;17.798;2023-12-28T13:51:59;14.67;;;4.77;;
12687;SDS011;6408;59.388;17.798;2023-12-28T13:54:27;12.97;;;4.37;;
12687;SDS011;6408;59.388;17.798;2023-12-28T13:56:55;11.67;;;5.13;;
12687;SDS011;6408;59.388;17.798;2023-12-28T13:59:26;16.63;;;5.43;;
12687;SDS011;6408;59.388;17.798;2023-12-28T14:01:53;9.93;;;4.20;;
12687;SDS011;6408;59.388;17.798;2023-12-28T14:04:20;13.50;;;5.13;;
12687;SDS011;6408;59.388;17.798;2023-12-28T14:06:49;9.63;;;4.57;;
12687;SDS011;6408;59.388;17.798;2023-12-28T14:09:16;7.43;;;4.37;;
12687;SDS011;6408;59.388;17.798;2023-12-28T14:11:45;13.53;;;5.50;;
12687;SDS011;6408;59.388;17.798;2023-12-28T14:14:13;12.27;;;6.13;;
12687;SDS011;6408;59.388;17.798;2023-12-28T14:16:42;10.00;;;4.93;;
12687;SDS011;6408;59.388;17.798;2023-12-28T14:19:10;13.83;;;5.70;;
12687;SDS011;6408;59.388;17.798;2023-12-28T14:21:37;12.33;;;5.20;;
12687;SDS011;6408;59.388;17.798;2023-12-28T14:24:06;8.17;;;4.50;;
12687;SDS011;6408;59.388;17.798;2023-12-28T14:26:34;10.77;;;5.30;;
12687;SDS011;6408;59.388;17.798;2023-12-28T14:29:08;14.40;;;5.50;;
12687;SDS011;6408;59.388;17.798;2023-12-28T14:31:36;11.77;;;6.47;;
12687;SDS011;6408;59.388;17.798;2023-12-28T14:34:05;12.60;;;5.57;;
12687;SDS011;6408;59.388;17.798;2023-12-28T14:36:34;9.33;;;5.57;;
12687;SDS011;6408;59.388;17.798;2023-12-28T14:39:03;12.97;;;5.57;;
12687;SDS011;6408;59.388;17.798;2023-12-28T14:41:31;7.03;;;4.23;;
12687;SDS011;6408;59.388;17.798;2023-12-28T14:43:59;9.50;;;4.73;;
12687;SDS011;6408;59.388;17.798;2023-12-28T14:46:26;6.80;;;4.33;;
12687;SDS011;6408;59.388;17.798;2023-12-28T14:48:54;8.83;;;4.33;;
12687;SDS011;6408;59.388;17.798;2023-12-28T14:51:23;6.47;;;3.53;;
12687;SDS011;6408;59.388;17.798;2023-12-28T14:53:53;7.83;;;3.90;;
12687;SDS011;6408;59.388;17.798;2023-12-28T14:56:20;8.00;;;3.90;;